Time;durP1;ratioP1;P1;durP2;ratioP2;P2;SDS_P1;SDS_P2;PMS_P1;PMS_P2;Temp;Humidity;BMP_temperature;BMP_pressure;BME280_temperature;BME280_humidity;BME280_pressure;Samples;Min_cycle;Max_cycle;Signal;HPM_P1;HPM_P2
2023/04/26 00:00:17;;;;;;;8.68;2.40;;;3.20;99.90;;;;;;5038364;28;20543;-75
2023/04/26 00:02:42;;;;;;;9.93;2.33;;;3.30;99.90;;;;;;5038294;28;20141;-73
2023/04/26 00:05:08;;;;;;;11.32;2.58;;;3.30;99.90;;;;;;5040434;28;20381;-74
2023/04/26 00:07:34;;;;;;;11.38;2.65;;;3.30;99.90;;;;;;5041888;28;20044;-73
2023/04/26 00:10:00;;;;;;;6.20;2.22;;;3.30;99.90;;;;;;5041259;28;20055;-74
2023/04/26 00:12:26;;;;;;;12.60;2.72;;;3.30;99.90;;;;;;5012567;28;20060;-77
2023/04/26 00:14:52;;;;;;;10.40;2.38;;;3.40;99.90;;;;;;5045210;28;20040;-74
2023/04/26 00:17:18;;;;;;;13.75;2.90;;;3.30;99.90;;;;;;5021888;28;20075;-73
2023/04/26 00:19:44;;;;;;;11.52;2.38;;;3.30;99.90;;;;;;5038772;28;20041;-74
2023/04/26 00:22:09;;;;;;;5.55;2.47;;;3.90;99.90;;;;;;5038307;28;20033;-74
2023/04/26 00:24:35;;;;;;;15.95;3.13;;;3.20;99.90;;;;;;5041009;28;20045;-74
2023/04/26 00:27:04;;;;;;;12.18;2.30;;;3.30;99.90;;;;;;5017662;28;20049;-73
2023/04/26 00:29:29;;;;;;;7.63;2.13;;;3.50;99.90;;;;;;5004772;28;20052;-74
2023/04/26 00:31:56;;;;;;;7.85;2.15;;;3.10;99.90;;;;;;5041391;28;20410;-73
2023/04/26 00:34:22;;;;;;;7.47;2.08;;;3.10;99.90;;;;;;5041026;28;20071;-72
2023/04/26 00:36:47;;;;;;;10.85;2.38;;;3.10;99.90;;;;;;5038178;28;20220;-74
2023/04/26 00:39:13;;;;;;;11.93;2.42;;;3.10;99.90;;;;;;5041997;28;20045;-74
2023/04/26 00:41:38;;;;;;;11.02;2.90;;;3.00;99.90;;;;;;5019103;28;20088;-73
2023/04/26 00:44:05;;;;;;;7.97;2.17;;;3.00;99.90;;;;;;5045015;28;20040;-73
2023/04/26 00:46:31;;;;;;;10.40;2.22;;;3.00;99.90;;;;;;5045232;28;20082;-75
2023/04/26 00:48:56;;;;;;;11.27;2.40;;;2.90;99.90;;;;;;5007786;28;20052;-73
2023/04/26 00:51:22;;;;;;;7.55;2.30;;;3.00;99.90;;;;;;5042165;28;20450;-73
2023/04/26 00:53:48;;;;;;;11.68;1.88;;;2.90;99.90;;;;;;5042467;28;20042;-73
2023/04/26 00:56:15;;;;;;;9.85;2.20;;;2.90;99.90;;;;;;5027341;28;20087;-73
2023/04/26 00:58:41;;;;;;;7.72;2.17;;;2.90;99.90;;;;;;5045223;28;20442;-73
2023/04/26 01:01:07;;;;;;;14.52;2.00;;;2.80;99.90;;;;;;5043035;28;20063;-74
2023/04/26 01:03:33;;;;;;;10.02;2.20;;;2.80;99.90;;;;;;5041977;28;20041;-76
2023/04/26 01:05:59;;;;;;;10.32;2.42;;;2.70;99.90;;;;;;5024296;28;20042;-74
2023/04/26 01:08:24;;;;;;;10.60;2.00;;;2.70;99.90;;;;;;5025716;28;20102;-73
2023/04/26 01:10:51;;;;;;;17.33;2.70;;;2.70;99.90;;;;;;5040956;28;20068;-74
2023/04/26 01:13:17;;;;;;;7.13;2.20;;;2.70;99.90;;;;;;5044009;28;20091;-73
2023/04/26 01:15:45;;;;;;;13.00;2.38;;;2.60;99.90;;;;;;5044984;28;20076;-72
2023/04/26 01:18:11;;;;;;;7.43;2.05;;;2.60;99.90;;;;;;5040068;28;20049;-74
2023/04/26 01:20:37;;;;;;;13.25;2.80;;;2.50;99.90;;;;;;5044377;28;20045;-74
2023/04/26 01:23:02;;;;;;;10.57;2.63;;;2.50;99.90;;;;;;5044863;28;20501;-73
2023/04/26 01:25:28;;;;;;;11.68;2.28;;;2.50;99.90;;;;;;5042130;28;20099;-72
2023/04/26 01:27:54;;;;;;;10.73;2.60;;;2.60;99.90;;;;;;5041286;28;20049;-74
2023/04/26 01:30:20;;;;;;;10.23;2.80;;;2.60;99.90;;;;;;5026961;28;20069;-74
2023/04/26 01:32:45;;;;;;;9.95;2.75;;;2.60;99.90;;;;;;5041371;28;20099;-73
2023/04/26 01:35:11;;;;;;;6.93;2.85;;;2.70;99.90;;;;;;5040975;28;20060;-74
2023/04/26 01:37:37;;;;;;;10.02;2.47;;;2.70;99.90;;;;;;5023364;28;20048;-73
2023/04/26 01:40:05;;;;;;;12.27;3.95;;;2.70;99.90;;;;;;5040474;28;20057;-72
2023/04/26 01:42:31;;;;;;;9.07;2.40;;;2.80;99.90;;;;;;5040933;28;20502;-74
2023/04/26 01:44:57;;;;;;;11.30;2.67;;;2.80;99.90;;;;;;5044344;28;20040;-73
2023/04/26 01:47:23;;;;;;;8.82;2.58;;;2.90;99.90;;;;;;5043515;28;20053;-73
2023/04/26 01:49:49;;;;;;;7.60;2.20;;;2.90;99.90;;;;;;5024178;28;20054;-73
2023/04/26 01:52:15;;;;;;;8.85;2.03;;;3.00;99.90;;;;;;5024881;28;20111;-74
2023/04/26 01:54:41;;;;;;;9.68;2.25;;;3.00;99.90;;;;;;5043614;28;20049;-73
2023/04/26 01:57:06;;;;;;;9.50;2.60;;;3.00;99.90;;;;;;5041354;28;20056;-74
2023/04/26 01:59:32;;;;;;;7.35;1.80;;;2.90;99.90;;;;;;5040715;28;20456;-74
2023/04/26 02:01:58;;;;;;;7.43;2.35;;;2.90;99.90;;;;;;5042477;28;20090;-75
2023/04/26 02:04:24;;;;;;;8.55;2.05;;;2.90;99.90;;;;;;5040395;28;20053;-73
2023/04/26 02:06:50;;;;;;;11.95;2.63;;;2.90;99.90;;;;;;5040331;28;20045;-74
2023/04/26 02:09:17;;;;;;;13.00;3.00;;;2.90;99.90;;;;;;5025020;28;20455;-77
2023/04/26 02:11:42;;;;;;;12.05;2.38;;;2.90;99.90;;;;;;5043638;28;20049;-73
2023/04/26 02:14:08;;;;;;;6.75;2.35;;;2.90;99.90;;;;;;5043171;28;20404;-76
2023/04/26 02:16:34;;;;;;;8.90;2.28;;;2.90;99.90;;;;;;5037375;28;20098;-74
2023/04/26 02:18:59;;;;;;;12.02;2.00;;;2.90;99.90;;;;;;5043260;28;20131;-77
2023/04/26 02:21:27;;;;;;;12.13;2.30;;;2.90;99.90;;;;;;5041333;28;20051;-75
2023/04/26 02:23:52;;;;;;;8.57;2.63;;;2.90;99.90;;;;;;5039858;28;20096;-75
2023/04/26 02:26:18;;;;;;;7.00;2.20;;;3.50;99.90;;;;;;5039809;28;20488;-74
2023/04/26 02:28:43;;;;;;;8.75;2.30;;;2.90;99.90;;;;;;5043329;28;20044;-74
2023/04/26 02:31:10;;;;;;;10.30;1.95;;;2.90;99.90;;;;;;5022014;28;20056;-78
2023/04/26 02:33:35;;;;;;;9.45;2.17;;;3.00;99.90;;;;;;5041938;28;20081;-73
2023/04/26 02:36:05;;;;;;;8.43;1.70;;;3.50;99.90;;;;;;5042120;28;20049;-74
2023/04/26 02:38:35;;;;;;;7.47;1.90;;;3.00;99.90;;;;;;5038394;28;20052;-74
2023/04/26 02:41:02;;;;;;;6.80;2.08;;;3.10;99.90;;;;;;5039750;28;20064;-76
2023/04/26 02:43:28;;;;;;;8.23;2.35;;;3.10;99.90;;;;;;5039224;28;20041;-75
2023/04/26 02:45:53;;;;;;;4.85;1.83;;;3.10;99.90;;;;;;5040228;28;20083;-74
2023/04/26 02:48:19;;;;;;;9.10;2.33;;;3.10;99.90;;;;;;5039634;28;20518;-75
2023/04/26 02:50:46;;;;;;;9.95;1.95;;;3.00;99.90;;;;;;5040261;28;20041;-75
2023/04/26 02:53:12;;;;;;;9.45;2.20;;;3.00;99.90;;;;;;5041318;28;20037;-74
2023/04/26 02:55:38;;;;;;;5.30;1.77;;;2.90;99.90;;;;;;5039799;28;20428;-76
2023/04/26 02:58:05;;;;;;;6.68;1.70;;;2.90;99.90;;;;;;5036449;28;20123;-75
2023/04/26 03:00:32;;;;;;;6.63;1.90;;;2.90;99.90;;;;;;5042808;28;20958;-75
2023/04/26 03:02:58;;;;;;;7.85;1.90;;;2.80;99.90;;;;;;5041664;28;20427;-76
2023/04/26 03:05:24;;;;;;;5.53;1.67;;;2.80;99.90;;;;;;5038424;28;20048;-75
2023/04/26 03:07:50;;;;;;;7.63;1.85;;;2.80;99.90;;;;;;5036391;28;20045;-74
2023/04/26 03:10:15;;;;;;;5.20;1.75;;;2.80;99.90;;;;;;5023215;28;20065;-75
2023/04/26 03:12:41;;;;;;;6.32;1.98;;;2.90;99.90;;;;;;5040092;28;20041;-74
2023/04/26 03:15:07;;;;;;;8.57;2.20;;;2.90;99.90;;;;;;5042119;28;20040;-74
2023/04/26 03:17:32;;;;;;;6.78;1.80;;;3.00;99.90;;;;;;5016598;28;20099;-74
2023/04/26 03:19:58;;;;;;;6.65;1.90;;;3.10;99.90;;;;;;5039033;28;20547;-77
2023/04/26 03:22:24;;;;;;;7.88;1.83;;;3.10;99.90;;;;;;5040619;28;20080;-75
2023/04/26 03:24:49;;;;;;;6.88;1.65;;;3.10;99.90;;;;;;5023632;28;20124;-76
2023/04/26 03:27:15;;;;;;;6.47;2.00;;;3.10;99.90;;;;;;5033348;28;20385;-74
2023/04/26 03:29:41;;;;;;;7.35;2.03;;;3.60;99.90;;;;;;5030779;28;20041;-74
2023/04/26 03:32:06;;;;;;;9.88;2.60;;;3.20;99.90;;;;;;5039038;28;20144;-75
2023/04/26 03:34:32;;;;;;;8.32;2.17;;;3.20;99.90;;;;;;5040023;28;20480;-77
2023/04/26 03:36:58;;;;;;;12.13;2.22;;;3.20;99.90;;;;;;5042094;28;20112;-75
2023/04/26 03:39:23;;;;;;;8.25;2.08;;;3.20;99.90;;;;;;5041898;28;20087;-75
2023/04/26 03:41:49;;;;;;;11.13;2.28;;;3.20;99.90;;;;;;5038455;28;20849;-74
2023/04/26 03:44:15;;;;;;;11.10;2.38;;;3.20;99.90;;;;;;5038208;28;20500;-74
2023/04/26 03:46:40;;;;;;;5.88;1.80;;;3.20;99.90;;;;;;5038940;28;20152;-74
2023/04/26 03:49:06;;;;;;;9.50;2.35;;;3.30;99.90;;;;;;5023886;28;20111;-77
2023/04/26 03:51:32;;;;;;;7.80;2.20;;;3.30;99.90;;;;;;5041774;28;20381;-74
2023/04/26 03:53:58;;;;;;;5.82;2.20;;;3.30;99.90;;;;;;5039493;28;20133;-74
2023/04/26 03:56:24;;;;;;;8.75;2.30;;;3.30;99.90;;;;;;5020084;28;20046;-73
2023/04/26 03:58:49;;;;;;;6.93;2.30;;;3.30;99.90;;;;;;5024874;28;20644;-73
2023/04/26 04:01:15;;;;;;;8.98;2.13;;;3.30;99.90;;;;;;5023802;28;20057;-75
2023/04/26 04:03:41;;;;;;;9.93;2.17;;;3.20;99.90;;;;;;5041610;28;20143;-81
2023/04/26 04:06:06;;;;;;;7.97;2.53;;;3.20;99.90;;;;;;5033257;28;20099;-73
2023/04/26 04:08:33;;;;;;;5.47;2.30;;;3.20;99.90;;;;;;5041615;28;20373;-74
2023/04/26 04:10:59;;;;;;;9.50;2.35;;;3.20;99.90;;;;;;5041302;28;20064;-74
2023/04/26 04:13:24;;;;;;;10.52;2.53;;;3.20;99.90;;;;;;5032344;28;20041;-73
2023/04/26 04:15:50;;;;;;;10.05;2.00;;;3.20;99.90;;;;;;5031738;28;20447;-72
2023/04/26 04:18:16;;;;;;;6.93;2.30;;;3.30;99.90;;;;;;5039074;28;20408;-74
2023/04/26 04:20:41;;;;;;;5.82;1.98;;;3.30;99.90;;;;;;5041361;28;20044;-74
2023/04/26 04:23:08;;;;;;;5.88;2.53;;;3.30;99.90;;;;;;5023923;28;20391;-73
2023/04/26 04:25:33;;;;;;;8.93;2.00;;;3.30;99.90;;;;;;5033031;28;20515;-74
2023/04/26 04:28:02;;;;;;;4.57;1.90;;;3.30;99.90;;;;;;5033746;28;20042;-74
2023/04/26 04:30:29;;;;;;;6.15;1.70;;;3.30;99.90;;;;;;5038245;28;20045;-73
2023/04/26 04:32:57;;;;;;;7.20;1.65;;;3.30;99.90;;;;;;5041247;28;20064;-73
2023/04/26 04:35:27;;;;;;;8.98;2.00;;;3.30;99.90;;;;;;5041364;28;20045;-74
2023/04/26 04:37:55;;;;;;;6.65;1.98;;;3.30;99.90;;;;;;5037943;28;20378;-74
2023/04/26 04:40:21;;;;;;;5.70;1.80;;;3.30;99.90;;;;;;5042134;28;20049;-74
2023/04/26 04:42:48;;;;;;;8.90;1.70;;;3.30;99.90;;;;;;5032711;28;20080;-74
2023/04/26 04:45:14;;;;;;;7.95;1.75;;;3.20;99.90;;;;;;5040749;28;20411;-73
2023/04/26 04:47:39;;;;;;;6.57;1.95;;;3.20;99.90;;;;;;5022366;28;20045;-74
2023/04/26 04:50:06;;;;;;;5.30;1.58;;;3.20;99.90;;;;;;5037992;28;20454;-73
2023/04/26 04:52:32;;;;;;;7.93;2.00;;;3.20;99.90;;;;;;5020083;28;20063;-74
2023/04/26 04:54:58;;;;;;;5.53;1.85;;;3.20;99.90;;;;;;5039857;28;20046;-74
2023/04/26 04:57:25;;;;;;;8.55;2.35;;;3.20;99.90;;;;;;5038295;28;20048;-74
2023/04/26 04:59:50;;;;;;;4.38;1.58;;;3.20;99.90;;;;;;5043593;28;20140;-73
2023/04/26 05:02:16;;;;;;;5.65;1.88;;;3.90;99.90;;;;;;5037939;28;20160;-74
2023/04/26 05:04:42;;;;;;;5.45;1.65;;;3.20;99.90;;;;;;5037789;28;20042;-80
2023/04/26 05:07:08;;;;;;;3.83;1.55;;;3.30;99.90;;;;;;5041292;28;20348;-74
2023/04/26 05:09:34;;;;;;;4.28;1.50;;;3.30;99.90;;;;;;5016451;28;20062;-75
2023/04/26 05:12:00;;;;;;;3.72;1.65;;;3.30;99.90;;;;;;5017806;28;20045;-75
2023/04/26 05:14:26;;;;;;;7.80;1.95;;;3.30;99.90;;;;;;5020559;28;20091;-74
2023/04/26 05:16:51;;;;;;;5.95;1.60;;;3.40;99.90;;;;;;5019418;28;20041;-72
2023/04/26 05:19:17;;;;;;;6.70;1.65;;;4.00;99.90;;;;;;5019260;28;20056;-75
2023/04/26 05:21:42;;;;;;;10.82;2.13;;;3.40;99.90;;;;;;5021015;28;20121;-75
2023/04/26 05:24:08;;;;;;;3.67;1.73;;;3.50;99.90;;;;;;5021162;28;20121;-75
2023/04/26 05:26:34;;;;;;;5.22;1.80;;;3.50;99.90;;;;;;5020018;28;20099;-74
2023/04/26 05:29:00;;;;;;;11.32;2.05;;;3.60;99.90;;;;;;5019547;28;20120;-74
2023/04/26 05:31:26;;;;;;;5.45;2.30;;;3.70;99.90;;;;;;5022092;28;20567;-74
2023/04/26 05:33:51;;;;;;;10.55;2.40;;;3.80;99.90;;;;;;5024478;28;20041;-72
2023/04/26 05:41:28;;;;;;;5.72;2.53;;;4.20;99.90;;;;;;1464378;26;20063;-74
2023/04/26 05:43:53;;;;;;;6.63;2.67;;;4.20;99.90;;;;;;5025979;28;20112;-73
2023/04/26 05:46:19;;;;;;;5.43;1.98;;;4.20;99.90;;;;;;5035401;28;20095;-74
2023/04/26 05:48:45;;;;;;;6.57;1.88;;;4.20;99.90;;;;;;5024866;28;20062;-74
2023/04/26 05:51:11;;;;;;;5.18;2.30;;;4.20;99.90;;;;;;5039041;28;20068;-75
2023/04/26 05:53:36;;;;;;;7.07;2.28;;;4.60;99.90;;;;;;5035907;28;20088;-72
2023/04/26 05:56:02;;;;;;;10.70;2.28;;;4.30;99.90;;;;;;5032169;28;20526;-74
2023/04/26 05:58:28;;;;;;;9.07;2.35;;;4.40;99.90;;;;;;5022616;28;20500;-74
2023/04/26 06:00:53;;;;;;;6.40;2.42;;;4.40;99.90;;;;;;5031758;28;20493;-74
2023/04/26 06:03:19;;;;;;;7.18;1.75;;;4.90;99.90;;;;;;5030838;28;20397;-74
2023/04/26 06:05:47;;;;;;;9.73;2.50;;;4.40;99.90;;;;;;5038739;28;20064;-72
2023/04/26 06:08:12;;;;;;;6.60;2.42;;;5.20;99.90;;;;;;5022703;28;20049;-78
2023/04/26 06:10:38;;;;;;;9.23;2.17;;;5.50;99.90;;;;;;5026211;28;20404;-75
2023/04/26 06:13:04;;;;;;;11.30;2.60;;;5.10;99.90;;;;;;5034540;28;20030;-74
2023/04/26 06:15:30;;;;;;;14.77;3.20;;;4.60;99.90;;;;;;5039170;28;20041;-74
2023/04/26 06:17:56;;;;;;;10.75;2.33;;;4.70;99.90;;;;;;5036237;28;20045;-77
2023/04/26 06:20:22;;;;;;;8.65;2.78;;;4.70;99.90;;;;;;5031676;28;20048;-76
2023/04/26 06:22:47;;;;;;;6.50;2.33;;;5.00;99.90;;;;;;5031776;28;20477;-74
2023/04/26 06:25:14;;;;;;;9.93;2.67;;;4.80;99.90;;;;;;5030892;28;20156;-72
2023/04/26 06:27:39;;;;;;;7.85;2.47;;;4.90;99.90;;;;;;5026070;28;20075;-74
2023/04/26 06:30:09;;;;;;;6.78;2.08;;;5.10;99.90;;;;;;5039433;28;20444;-73
2023/04/26 06:32:35;;;;;;;10.25;2.72;;;5.00;99.90;;;;;;5022281;28;20056;-73
2023/04/26 06:35:01;;;;;;;9.70;2.80;;;5.00;99.90;;;;;;5027526;28;20040;-74
2023/04/26 06:37:27;;;;;;;10.85;2.70;;;5.00;99.90;;;;;;5034014;28;20048;-76
2023/04/26 06:39:52;;;;;;;14.43;2.85;;;5.00;99.90;;;;;;5030343;28;20033;-73
2023/04/26 06:42:19;;;;;;;11.20;2.60;;;5.10;99.90;;;;;;5031161;28;20110;-74
2023/04/26 06:44:44;;;;;;;12.57;3.08;;;5.20;99.90;;;;;;5004653;28;20080;-77
2023/04/26 06:47:10;;;;;;;12.73;3.97;;;5.20;99.90;;;;;;5023619;28;20491;-75
2023/04/26 06:49:36;;;;;;;8.52;3.03;;;5.30;99.90;;;;;;5034412;28;20484;-74
2023/04/26 06:52:01;;;;;;;8.65;2.70;;;5.40;99.90;;;;;;5031141;28;20713;-75
2023/04/26 06:54:30;;;;;;;5.70;2.58;;;5.50;99.90;;;;;;5031002;28;20049;-74
2023/04/26 06:56:56;;;;;;;10.70;2.97;;;5.60;99.90;;;;;;5024172;28;20125;-73
2023/04/26 06:59:22;;;;;;;5.10;2.70;;;5.80;99.90;;;;;;5024315;28;20432;-73
2023/04/26 07:01:47;;;;;;;6.07;2.70;;;5.90;99.90;;;;;;5025423;28;20050;-72
2023/04/26 07:04:15;;;;;;;10.65;2.70;;;5.90;99.90;;;;;;5039412;28;20375;-73
2023/04/26 07:06:41;;;;;;;5.15;2.72;;;6.00;99.90;;;;;;5035585;28;20064;-73
2023/04/26 07:09:07;;;;;;;5.70;2.28;;;6.10;99.90;;;;;;5021106;28;20049;-72
2023/04/26 07:11:33;;;;;;;8.93;2.58;;;6.10;99.90;;;;;;5030753;28;20081;-73
2023/04/26 07:13:59;;;;;;;9.95;2.53;;;6.30;99.90;;;;;;5004145;28;20100;-73
2023/04/26 07:16:25;;;;;;;9.70;2.58;;;6.30;99.90;;;;;;5018671;28;20053;-75
2023/04/26 07:18:57;;;;;;;11.05;2.40;;;6.80;99.90;;;;;;4999314;28;20634;-76
2023/04/26 07:21:23;;;;;;;13.23;2.45;;;6.40;99.90;;;;;;5030367;28;20045;-73
2023/04/26 07:23:53;;;;;;;9.38;2.40;;;6.50;99.90;;;;;;5036574;28;20500;-73
2023/04/26 07:26:19;;;;;;;10.18;2.38;;;6.60;99.90;;;;;;5032317;28;20495;-74
2023/04/26 07:28:45;;;;;;;12.35;2.38;;;6.70;99.90;;;;;;5030356;28;20044;-75
2023/04/26 07:31:11;;;;;;;9.35;2.25;;;6.80;99.90;;;;;;5030397;28;20139;-74
2023/04/26 07:33:37;;;;;;;7.85;2.20;;;6.90;99.90;;;;;;5032543;28;20045;-74
2023/04/26 07:36:04;;;;;;;6.10;2.17;;;7.10;99.90;;;;;;5036226;28;20455;-74
2023/04/26 07:38:29;;;;;;;4.53;2.00;;;7.20;99.90;;;;;;5030276;28;20132;-73
2023/04/26 07:40:55;;;;;;;8.65;1.92;;;7.30;99.90;;;;;;5020962;28;20477;-73
2023/04/26 07:43:22;;;;;;;10.43;2.58;;;7.40;99.90;;;;;;5029829;28;20152;-74
2023/04/26 07:45:47;;;;;;;10.43;1.80;;;7.50;99.90;;;;;;5030068;28;20053;-76
2023/04/26 07:48:13;;;;;;;6.30;1.63;;;7.60;99.90;;;;;;5036199;28;20088;-72
2023/04/26 07:50:39;;;;;;;6.75;1.95;;;7.80;99.90;;;;;;5017852;28;20053;-74
2023/04/26 07:53:05;;;;;;;9.02;2.03;;;8.00;99.90;;;;;;5023427;28;20087;-74
2023/04/26 07:55:30;;;;;;;7.35;1.73;;;8.10;99.90;;;;;;5035218;28;20448;-75
2023/04/26 07:57:56;;;;;;;6.95;2.08;;;8.00;99.90;;;;;;5022262;28;20049;-74
2023/04/26 08:00:23;;;;;;;6.00;1.30;;;8.00;99.90;;;;;;5030221;28;20041;-73
2023/04/26 08:02:48;;;;;;;14.98;1.88;;;8.20;99.90;;;;;;5030476;28;20132;-73
2023/04/26 08:05:15;;;;;;;7.15;1.77;;;8.30;99.90;;;;;;5032585;28;20120;-73
2023/04/26 08:07:41;;;;;;;7.68;1.90;;;8.30;99.90;;;;;;5033047;28;20121;-72
2023/04/26 08:10:08;;;;;;;10.48;2.15;;;8.40;99.90;;;;;;5026148;28;20067;-75
2023/04/26 08:12:36;;;;;;;4.40;1.42;;;8.60;99.90;;;;;;5030275;28;20041;-75
2023/04/26 08:15:06;;;;;;;8.27;2.03;;;8.60;99.90;;;;;;5038582;28;20083;-73
2023/04/26 08:17:31;;;;;;;13.15;2.30;;;8.50;99.90;;;;;;5030048;28;20037;-72
2023/04/26 08:19:58;;;;;;;8.43;1.88;;;8.60;99.90;;;;;;5031068;28;20125;-73
2023/04/26 08:22:24;;;;;;;6.57;2.00;;;8.70;99.90;;;;;;5030213;28;20037;-72
2023/04/26 08:24:54;;;;;;;5.75;2.00;;;8.60;99.90;;;;;;5030055;28;20049;-73
2023/04/26 08:27:20;;;;;;;10.32;1.80;;;8.60;99.90;;;;;;5027478;28;20144;-72
2023/04/26 08:29:46;;;;;;;9.35;1.95;;;8.70;99.90;;;;;;5024315;28;20050;-73
2023/04/26 08:32:12;;;;;;;5.05;1.67;;;8.80;99.90;;;;;;5024042;28;20037;-72
2023/04/26 08:34:37;;;;;;;8.98;1.83;;;9.50;99.90;;;;;;5027932;28;20041;-73
2023/04/26 08:37:04;;;;;;;8.43;2.00;;;8.90;99.90;;;;;;5029690;28;20041;-72
2023/04/26 08:39:30;;;;;;;7.78;1.85;;;8.80;99.90;;;;;;5032588;28;20120;-73
2023/04/26 08:42:03;;;;;;;9.68;2.25;;;9.40;99.90;;;;;;5034118;28;20053;-73
2023/04/26 08:44:33;;;;;;;9.30;1.98;;;8.10;99.90;;;;;;5033113;28;20057;-74
2023/04/26 08:47:27;;;;;;;13.35;2.35;;;7.80;99.90;;;;;;5015016;28;20038;-73
2023/04/26 08:50:02;;;;;;;7.60;2.05;;;7.60;99.90;;;;;;5030168;28;20075;-74
2023/04/26 08:52:29;;;;;;;11.80;2.30;;;7.40;99.90;;;;;;5034161;28;20490;-73
2023/04/26 08:54:59;;;;;;;11.75;2.13;;;7.40;99.90;;;;;;5030620;28;20132;-72
2023/04/26 08:57:26;;;;;;;9.82;2.40;;;7.40;99.90;;;;;;5029989;28;20049;-72
2023/04/26 08:59:52;;;;;;;10.43;1.90;;;7.40;99.90;;;;;;5030101;28;20124;-74
2023/04/26 09:02:20;;;;;;;8.65;1.90;;;7.40;99.90;;;;;;5037215;28;20393;-72
2023/04/26 09:04:47;;;;;;;10.18;2.00;;;7.50;99.90;;;;;;5036675;28;20057;-73
2023/04/26 09:07:20;;;;;;;12.50;2.58;;;7.50;99.90;;;;;;5030435;28;20085;-73
2023/04/26 09:09:49;;;;;;;12.90;2.55;;;7.60;99.90;;;;;;5037565;28;20050;-72
2023/04/26 09:12:20;;;;;;;10.48;2.22;;;7.70;99.90;;;;;;5024306;28;20060;-72
2023/04/26 09:14:46;;;;;;;9.55;2.13;;;7.80;99.90;;;;;;5038572;28;20056;-75
2023/04/26 09:17:31;;;;;;;14.95;2.35;;;7.70;99.90;;;;;;5026542;28;20045;-71
2023/04/26 09:20:00;;;;;;;12.52;2.28;;;7.80;99.90;;;;;;5042277;28;20443;-72
2023/04/26 09:22:34;;;;;;;6.50;2.33;;;7.90;99.90;;;;;;5035081;28;20120;-73
2023/04/26 09:25:02;;;;;;;12.00;2.03;;;8.00;99.90;;;;;;5041797;28;20054;-73
2023/04/26 09:27:39;;;;;;;13.52;2.55;;;8.10;99.90;;;;;;5034146;28;20048;-72
2023/04/26 09:30:06;;;;;;;14.73;2.53;;;8.20;99.90;;;;;;5044654;28;20083;-75
2023/04/26 09:32:48;;;;;;;10.55;2.70;;;8.30;99.90;;;;;;5034102;28;20132;-73
2023/04/26 09:35:36;;;;;;;11.35;2.17;;;8.30;99.90;;;;;;5033383;28;20033;-74
2023/04/26 09:38:16;;;;;;;13.77;2.83;;;8.30;99.90;;;;;;5035524;28;20088;-74
2023/04/26 09:40:49;;;;;;;14.65;2.10;;;8.40;99.90;;;;;;5033246;28;20045;-75
2023/04/26 09:43:21;;;;;;;7.65;1.70;;;8.50;99.90;;;;;;5037487;28;20058;-73
2023/04/26 09:45:57;;;;;;;4.30;1.85;;;8.60;99.90;;;;;;5033816;28;20059;-73
2023/04/26 09:48:25;;;;;;;8.38;2.20;;;8.50;99.90;;;;;;5033217;28;20041;-74
2023/04/26 09:51:13;;;;;;;10.60;2.17;;;8.50;99.90;;;;;;5026436;28;20155;-74
2023/04/26 09:53:46;;;;;;;12.77;2.45;;;8.60;99.90;;;;;;5035592;28;20049;-73
2023/04/26 09:56:18;;;;;;;8.82;2.28;;;8.80;99.90;;;;;;5032420;28;20041;-74
2023/04/26 09:58:50;;;;;;;5.25;1.95;;;8.80;99.90;;;;;;5022946;28;20148;-73
2023/04/26 10:01:18;;;;;;;8.00;2.03;;;8.80;99.90;;;;;;5039403;28;20124;-73
2023/04/26 10:03:45;;;;;;;11.30;2.60;;;8.90;99.90;;;;;;5025737;28;20052;-74
2023/04/26 10:06:14;;;;;;;5.78;1.85;;;8.90;99.90;;;;;;5032437;28;20566;-74
2023/04/26 10:08:41;;;;;;;7.45;1.58;;;9.10;99.90;;;;;;5031698;28;20033;-75
2023/04/26 10:11:08;;;;;;;11.40;2.25;;;9.70;99.90;;;;;;5040538;28;20351;-76
2023/04/26 10:13:34;;;;;;;13.57;2.22;;;9.20;99.90;;;;;;5038353;28;20489;-72
2023/04/26 10:16:01;;;;;;;9.98;1.95;;;9.10;99.90;;;;;;5022458;28;20122;-73
2023/04/26 10:18:27;;;;;;;12.85;2.30;;;9.20;99.90;;;;;;5039954;28;20034;-73
2023/04/26 10:20:58;;;;;;;7.95;1.92;;;9.30;99.90;;;;;;5036504;28;20500;-79
2023/04/26 10:23:24;;;;;;;8.75;2.10;;;8.90;99.90;;;;;;5036304;28;20053;-74
2023/04/26 10:25:51;;;;;;;11.60;2.20;;;8.80;99.90;;;;;;5021786;28;20053;-73
2023/04/26 10:28:17;;;;;;;10.73;1.83;;;9.10;99.90;;;;;;5031751;28;20049;-73
2023/04/26 10:30:58;;;;;;;5.60;1.90;;;8.80;99.90;;;;;;5026885;28;20112;-73
2023/04/26 10:33:25;;;;;;;6.90;1.92;;;8.80;99.90;;;;;;5033591;28;20073;-73
2023/04/26 10:36:11;;;;;;;9.02;1.80;;;9.00;99.90;;;;;;5031146;28;20091;-74
2023/04/26 10:38:39;;;;;;;12.38;2.17;;;9.10;99.90;;;;;;5038460;28;20045;-75
2023/04/26 10:41:35;;;;;;;9.43;2.00;;;9.30;99.90;;;;;;5034848;28;20044;-72
2023/04/26 10:44:19;;;;;;;;;;;9.40;99.90;;;;;;5031663;28;20057;-72
2023/04/26 10:46:50;;;;;;;5.18;1.55;;;9.40;99.90;;;;;;5031414;28;19995;-73
2023/04/26 10:49:17;;;;;;;9.55;1.60;;;9.30;99.90;;;;;;5036802;28;20503;-73
2023/04/26 10:52:11;;;;;;;7.93;1.95;;;9.20;99.90;;;;;;5033311;28;20373;-76
2023/04/26 10:54:47;;;;;;;9.13;1.65;;;9.10;99.90;;;;;;5032910;28;20041;-73
2023/04/26 10:57:13;;;;;;;6.47;2.55;;;8.90;99.90;;;;;;5032762;28;20045;-79
2023/04/26 10:59:39;;;;;;;10.48;2.22;;;8.60;99.90;;;;;;5031112;28;20041;-73
2023/04/26 11:02:12;;;;;;;9.18;1.88;;;8.50;99.90;;;;;;5031058;28;20099;-76
2023/04/26 11:04:53;;;;;;;10.23;2.10;;;8.50;99.90;;;;;;5035359;28;20096;-74
2023/04/26 11:07:38;;;;;;;9.20;1.95;;;8.60;99.90;;;;;;5026179;28;20558;-76
2023/04/26 11:10:09;;;;;;;6.63;1.75;;;8.60;99.90;;;;;;5036671;28;20506;-73
2023/04/26 11:12:34;;;;;;;5.57;1.60;;;8.70;99.90;;;;;;5036008;28;20049;-73
2023/04/26 11:15:00;;;;;;;6.25;1.85;;;8.70;99.90;;;;;;5033684;28;20043;-73
2023/04/26 11:17:25;;;;;;;11.20;2.50;;;8.70;99.90;;;;;;5030698;28;20088;-72
2023/04/26 11:19:51;;;;;;;13.82;2.25;;;8.90;99.90;;;;;;5030577;28;20092;-74
2023/04/26 11:22:22;;;;;;;5.95;1.70;;;8.80;99.90;;;;;;5030418;28;20045;-74
2023/04/26 11:24:48;;;;;;;8.48;2.00;;;8.80;99.90;;;;;;5030768;28;20052;-73
2023/04/26 11:27:14;;;;;;;8.10;1.60;;;8.70;99.90;;;;;;5029177;28;20034;-73
2023/04/26 11:29:39;;;;;;;10.95;2.08;;;8.60;99.90;;;;;;5030511;28;20037;-72
2023/04/26 11:32:05;;;;;;;5.68;1.65;;;8.60;99.90;;;;;;5021205;28;20098;-72
2023/04/26 11:34:35;;;;;;;6.38;1.30;;;8.60;99.90;;;;;;5030174;28;20047;-75
2023/04/26 11:37:05;;;;;;;6.30;1.50;;;8.60;99.90;;;;;;5036114;28;20045;-73
2023/04/26 11:39:35;;;;;;;8.23;1.50;;;8.60;99.90;;;;;;5022741;28;20049;-73
2023/04/26 11:42:08;;;;;;;7.90;1.40;;;8.60;99.90;;;;;;5024327;28;20066;-73
2023/04/26 11:44:36;;;;;;;7.53;1.25;;;8.70;99.90;;;;;;5036270;28;20409;-74
2023/04/26 11:47:03;;;;;;;5.90;1.48;;;8.80;99.90;;;;;;5037173;28;20063;-73
2023/04/26 11:49:33;;;;;;;7.43;1.98;;;8.90;99.90;;;;;;5022047;28;20161;-72
2023/04/26 11:51:59;;;;;;;5.00;1.35;;;9.30;99.90;;;;;;5024950;28;20112;-74
2023/04/26 11:54:30;;;;;;;9.45;1.60;;;9.50;99.90;;;;;;5030398;28;20049;-73
2023/04/26 11:56:56;;;;;;;7.03;1.52;;;9.30;99.90;;;;;;5026900;28;20488;-72
2023/04/26 11:59:28;;;;;;;4.20;1.42;;;9.80;99.90;;;;;;5031238;28;20487;-73
2023/04/26 12:01:55;;;;;;;6.03;1.50;;;9.30;99.90;;;;;;5033592;28;20037;-72
2023/04/26 12:04:28;;;;;;;9.60;1.85;;;9.20;99.90;;;;;;5036760;28;20128;-71
2023/04/26 12:06:54;;;;;;;7.05;1.45;;;9.40;99.90;;;;;;5032100;28;20056;-70
2023/04/26 12:09:26;;;;;;;7.40;1.35;;;9.00;99.90;;;;;;5042063;28;20052;-70
2023/04/26 12:12:00;;;;;;;5.78;1.40;;;9.00;99.90;;;;;;5019917;28;20057;-77
2023/04/26 12:14:46;;;;;;;6.70;1.50;;;9.30;99.90;;;;;;5012579;28;20080;-81
2023/04/26 12:17:14;;;;;;;8.45;1.77;;;9.00;99.90;;;;;;5031173;28;20671;-72
2023/04/26 12:19:40;;;;;;;8.85;1.38;;;9.20;99.90;;;;;;5029355;28;20429;-72
2023/04/26 12:22:07;;;;;;;5.90;1.40;;;8.90;99.90;;;;;;5035376;28;20060;-71
2023/04/26 12:24:35;;;;;;;6.45;1.33;;;8.80;99.90;;;;;;5037039;28;20047;-71
2023/04/26 12:27:05;;;;;;;10.13;1.40;;;8.80;99.90;;;;;;5029041;28;20045;-76
2023/04/26 12:29:31;;;;;;;5.00;1.15;;;8.80;99.90;;;;;;5028600;28;20045;-75
2023/04/26 12:31:58;;;;;;;6.82;1.60;;;9.00;99.90;;;;;;5034834;28;20472;-78
2023/04/26 12:34:27;;;;;;;10.27;1.92;;;8.70;99.90;;;;;;5012113;28;20092;-72
2023/04/26 12:36:53;;;;;;;11.48;1.42;;;8.90;99.90;;;;;;5036337;28;20034;-74
2023/04/26 12:39:19;;;;;;;10.27;1.65;;;8.50;99.90;;;;;;5036806;28;20111;-73
2023/04/26 12:41:45;;;;;;;7.10;1.42;;;8.10;99.90;;;;;;5036119;28;20053;-71
2023/04/26 12:44:11;;;;;;;8.75;2.17;;;8.20;99.90;;;;;;5044507;28;20051;-73
2023/04/26 12:46:37;;;;;;;8.75;2.80;;;8.10;99.90;;;;;;5019246;28;20111;-72
2023/04/26 12:49:03;;;;;;;8.00;2.35;;;8.10;99.90;;;;;;5041989;28;20037;-72
2023/04/26 12:51:30;;;;;;;8.88;2.60;;;8.40;99.90;;;;;;5042027;28;20403;-78
2023/04/26 12:53:56;;;;;;;6.60;2.50;;;8.20;99.90;;;;;;5018470;28;20372;-72
2023/04/26 12:56:23;;;;;;;6.90;2.40;;;8.20;99.90;;;;;;5045128;28;20053;-73
2023/04/26 12:58:49;;;;;;;10.20;2.72;;;8.30;99.90;;;;;;5039869;28;20509;-73